• Join FlightAware (Why Join?)
  • Login
  • US Flag 
04:20AM EDT


 

Airport Tracker/Info


-or-


 

Live Flight TrackerFlight Track Log ✈ CPZ5685 ✈ 06-May-2013 ✈ KMSP - KBUF

Flight Track Log - Related Links

Times and Time Zones

All times are in EDT time to prevent confusion due to time zone crossing. See the CPZ5685 flight status page for this flight to view local times or setup timezone preferences in your user account.

Time Position Orientation Groundspeed Altitude Reporting Facility
EDT Latitude Longitude Course Direction KTS MPH feet Rate Location/Type
04:16PM 44.9369 -93.2531 70° East 180 207 3,200  Level Minneapolis Center
04:18PM 44.9864 -92.8112 69° East  Level FlightAware Approximate
04:18PM 45.0669 -93.2428 North 271 312 8,700  Level Minneapolis Center
04:19PM 45.0240 -92.6745 68° East  Level FlightAware Approximate
04:20PM 45.0629 -92.5383 68° East  Level FlightAware Approximate
04:20PM 45.0537 -93.0768 96° East  Level Estimated
04:21PM 45.0998 -92.4010 70° East  Level FlightAware Approximate
04:22PM 45.1312 -92.2589 70° East  Level FlightAware Approximate
04:23PM 45.2006 -92.7056 97° East 371 427 18,800  Level Minneapolis Center
04:25PM 45.2717 -92.4153 71° East 394 453 22,800 1,800 Climbing Minneapolis Center
04:26PM 45.3075 -92.2622 72° East 406 467 24,500 1,680 Climbing Minneapolis Center
04:27PM 44.9650 -92.0383 97° East  Level Estimated
04:27PM 45.3339 -92.0672 79° East 416 479 26,300  Level Minneapolis Center
04:28PM 44.9516 -91.8902 97° East  Level Estimated
04:28PM 45.3556 -91.9003 79° East 426 490 27,600  Level Minneapolis Center
04:30PM 45.4019 -91.5592 79° East 441 507 30,100 1,080 Climbing Minneapolis Center
04:31PM 45.3989 -91.3892 91° East 437 503 31,100 1,140 Climbing Minneapolis Center
04:32PM 45.3611 -91.2089 107° East 443 510 32,500 1,200 Climbing Minneapolis Center
04:34PM 45.2953 -90.8842 106° East 431 496 34,900 780 Climbing Minneapolis Center
04:35PM 45.2553 -90.6914 106° East 428 493 35,000  Climbing Minneapolis Center
04:36PM 45.2214 -90.5297 107° East 430 495 35,000  Level Minneapolis Center
04:37PM 45.1875 -90.3678 106° East 430 495 35,000  Level Minneapolis Center
04:38PM 45.1536 -90.2072 107° East 429 494 35,000  Level Minneapolis Center
04:40PM 45.0698 -89.9823 106° East  Level FlightAware Approximate
04:40PM 45.0778 -89.8558 106° East 428 493 35,000  Level Minneapolis Center
04:41PM 45.0456 -89.7042 107° East 432 497 35,000  Level Minneapolis Center
04:42PM 45.0097 -89.5428 107° East 432 497 35,000  Level Minneapolis Center
04:43PM 44.9731 -89.3772 107° East 437 503 35,000  Level Minneapolis Center
04:45PM 44.9039 -89.1757 107° East  Level FlightAware Approximate
04:46PM 44.8544 -88.8447 107° East 450 518 35,000  Level Minneapolis Center
04:47PM 44.8161 -88.6786 108° East 447 514 35,000  Level Minneapolis Center
04:48PM 44.7781 -88.5125 108° East 446 513 35,000  Level Minneapolis Center
04:49PM 44.7325 -88.3183 108° East 446 513 35,000  Level Minneapolis Center
04:50PM 44.6939 -88.1528 108° East 445 512 35,000  Level Minneapolis Center
04:51PM 44.6542 -87.9864 108° East 448 516 35,000  Level Minneapolis Center
04:52PM 44.6522 -88.0429 107° East  Level FlightAware Approximate
04:54PM 44.5725 -87.6472 109° East 442 509 35,000  Level Minneapolis Center
04:55PM 44.5333 -87.4844 109° East 443 510 35,000  Level Minneapolis Center
04:56PM 44.4944 -87.3214 108° East 443 510 35,000  Level Minneapolis Center
04:58PM 44.4147 -86.9989 109° East 441 507 35,000  Level Minneapolis Center
05:00PM 44.3269 -86.6461 109° East 440 506 35,000  Level Minneapolis Center
05:01PM 44.2861 -86.4844 109° East 444 511 35,000  Level Minneapolis Center
05:02PM 44.2461 -86.3239 109° East 444 511 35,000  Level Minneapolis Center
05:03PM 44.1972 -86.1311 109° East 443 510 35,000  Level Minneapolis Center
05:04PM 44.1561 -85.9703 110° East 445 512 35,000  Level Minneapolis Center
05:06PM 44.0667 -85.6667 112° Southeast 440 506 35,000  Level Toronto Center
05:07PM 44.0322 -85.4950 106° East 441 507 35,000  Level Minneapolis Center
05:09PM 43.9500 -85.2000 111° Southeast 440 506 35,000  Level Toronto Center
05:10PM 43.8833 -85.0333 119° Southeast 440 506 35,000  Level Toronto Center
05:11PM 43.8667 -84.8833 99° East 450 518 35,000  Level Toronto Center
05:11PM 43.8522 -84.8253 109° East 441 507 35,000  Level Minneapolis Center
05:12PM 43.8103 -84.6683 110° East 438 504 35,000  Level Minneapolis Center
05:13PM 43.7681 -84.5103 110° East 438 504 35,000  Level Minneapolis Center
05:15PM 43.6700 -84.1592 111° Southeast 441 507 35,000  Level Cleveland Center
05:16PM 43.6342 -84.0336 111° Southeast 441 507 35,000  Level Cleveland Center
05:17PM 43.5842 -83.8494 110° East 442 509 35,000  Level Minneapolis Center
05:18PM 43.5356 -83.6903 113° Southeast 441 507 35,000  Level Cleveland Center
05:19PM 43.4917 -83.5333 111° Southeast 435 501 35,000  Level Cleveland Center
05:20PM 43.4453 -83.3825 113° Southeast 435 501 35,000 -540 Level Cleveland Center
05:21PM 43.4031 -83.2292 111° Southeast 435 501 34,000 -1,440 Descending Cleveland Center
05:23PM 43.3333 -82.9833 111° Southeast 440 506 31,600 -1,620 Descending Toronto Center
05:23PM 43.3100 -82.9111 114° Southeast 440 506 30,800 -1,020 Descending Cleveland Center
05:25PM 43.2367 -82.5922 107° East 440 506 29,000 -780 Descending Cleveland Center
05:26PM 43.2167 -82.5000 107° East 450 518 29,000  Level Toronto Center
05:27PM 43.2000 -82.3333 98° East 450 518 29,000  Level Toronto Center
05:28PM 43.1667 -82.1667 105° East 450 518 29,000 -180 Level Toronto Center
05:30PM 43.1333 -81.8333 98° East 450 518 28,600 -540 Descending Toronto Center
05:31PM 43.1000 -81.6667 105° East 450 518 27,400 -1,200 Descending Toronto Center
05:32PM 43.0833 -81.5000 98° East 440 506 26,300 -1,140 Descending Toronto Center
05:34PM 43.0333 -81.1833 102° East 420 483 24,000 -840 Descending Toronto Center
05:35PM 43.0167 -81.0167 98° East 420 483 23,800 -660 Descending Toronto Center
05:36PM 43.0000 -80.8667 99° East 420 483 22,700 -1,080 Descending Toronto Center
05:37PM 43.0167 -80.7333 80° East 410 472 21,700 -1,080 Descending Toronto Center
05:39PM 43.0000 -80.4000 94° East 400 460 19,500 -1,140 Descending Toronto Center
05:41PM 42.9833 -80.1167 95° East 390 449 17,300 -1,140 Descending Toronto Center
05:42PM 42.9833 -79.9667 90° East 390 449 16,100 -1,200 Descending Toronto Center
05:43PM 42.9833 -79.7667 90° East 371 427 14,300 -1,200 Descending Buffalo TRACON
05:44PM 42.9667 -79.6833 105° East 370 426 13,700 -1,200 Descending Toronto Center
05:45PM 42.9667 -79.5667 90° East 360 414 12,600 -1,200 Descending Toronto Center
05:46PM 42.9667 -79.4000 90° East 360 414 11,400 -1,140 Descending Toronto Center
05:47PM 42.9500 -79.3167 105° East 310 357 10,400 -1,140 Descending Toronto Center
05:48PM 42.9500 -79.2000 90° East 290 334 9,200 -1,500 Descending Toronto Center
05:49PM 42.9000 -79.0667 117° Southeast 264 304 6,500 -1,200 Descending Buffalo TRACON
05:51PM 42.8000 -78.9167 132° Southeast 206 237 4,800 -1,020 Descending Buffalo TRACON
05:52PM 42.8167 -78.8667 66° East 173 199 3,600 -960 Descending Buffalo TRACON
05:54PM 42.8833 -78.8000 36° Northeast 165 190 2,000 -840 Descending Buffalo TRACON
05:55PM 42.9167 -78.7667 36° Northeast 134 154 1,300 -720 Descending Buffalo TRACON